Time;durP1;ratioP1;P1;durP2;ratioP2;P2;SDS_P1;SDS_P2;PMS_P1;PMS_P2;Temp;Humidity;BMP_temperature;BMP_pressure;BME280_temperature;BME280_humidity;BME280_pressure;Samples;Min_cycle;Max_cycle;Signal;HPM_P1;HPM_P2
2022/01/28 00:00:30;;;;;;;;;;;21.00;36.10;;;;;;673229;29;1401;-83
2022/01/28 00:00:59;;;;;;;;;;;21.00;36.10;;;;;;672920;29;907;-84
2022/01/28 00:01:26;;;;;;;;;;;21.00;36.00;;;;;;672824;29;1323;-87
2022/01/28 00:02:01;;;;;;;;;;;21.00;36.20;;;;;;672792;29;835;-84
2022/01/28 00:03:17;;;;;;;;;;;21.00;36.10;;;;;;673853;29;690;-84
2022/01/28 00:03:40;;;;;;;;;;;21.00;36.20;;;;;;674622;29;811;-85
2022/01/28 00:04:11;;;;;;;;;;;21.00;36.20;;;;;;674580;29;836;-82
2022/01/28 00:04:32;;;;;;;;;;;21.00;36.10;;;;;;674830;29;907;-82
2022/01/28 00:04:53;;;;;;;;;;;21.00;36.20;;;;;;675437;29;836;-83
2022/01/28 00:05:20;;;;;;;;;;;21.00;36.20;;;;;;674999;29;867;-85
2022/01/28 00:05:40;;;;;;;;;;;21.00;36.20;;;;;;675326;29;1880;-79
2022/01/28 00:06:01;;;;;;;;;;;21.00;36.20;;;;;;675405;29;1093;-82
2022/01/28 00:06:22;;;;;;;;;;;21.00;37.30;;;;;;675716;29;1010;-82
2022/01/28 00:06:42;;;;;;;;;;;21.00;36.20;;;;;;675395;29;1243;-80
2022/01/28 00:07:03;;;;;;;;;;;21.00;36.20;;;;;;675324;29;1053;-84
2022/01/28 00:07:23;;;;;;;;;;;21.00;36.30;;;;;;675357;29;1156;-85
2022/01/28 00:07:44;;;;;;;;;;;21.00;36.30;;;;;;675432;29;1368;-82
2022/01/28 00:08:05;;;;;;;;;;;21.00;36.30;;;;;;675416;29;1116;-82
2022/01/28 00:08:26;;;;;;;;;;;21.00;36.30;;;;;;675659;29;1018;-85
2022/01/28 00:08:47;;;;;;;;;;;21.00;36.30;;;;;;675117;29;832;-82
2022/01/28 00:09:07;;;;;;;;;;;21.00;36.30;;;;;;675326;29;983;-87
2022/01/28 00:09:31;;;;;;;;;;;21.00;36.30;;;;;;674408;29;925;-88
2022/01/28 00:09:51;;;;;;;;;;;21.00;36.30;;;;;;675636;29;812;-83
2022/01/28 00:10:12;;;;;;;;;;;21.00;36.30;;;;;;675310;29;879;-81
2022/01/28 00:10:40;;;;;;;;;;;20.90;36.30;;;;;;675491;29;958;-80
2022/01/28 00:11:01;;;;;;;;;;;21.00;36.40;;;;;;675635;29;958;-81
2022/01/28 00:11:25;;;;;;;;;;;21.00;36.50;;;;;;674643;29;974;-86
2022/01/28 00:11:45;;;;;;;;;;;21.50;36.70;;;;;;674352;29;914;-83
2022/01/28 00:12:09;;;;;;;;;;;21.00;36.50;;;;;;674964;29;1148;-83
2022/01/28 00:12:30;;;;;;;;;;;20.90;36.40;;;;;;674244;29;839;-83
2022/01/28 00:13:16;;;;;;;;;;;20.90;36.30;;;;;;674176;29;832;-86
2022/01/28 00:13:40;;;;;;;;;;;20.90;36.30;;;;;;675290;29;1116;-83
2022/01/28 00:14:23;;;;;;;;;;;20.90;36.40;;;;;;673901;29;883;-83
2022/01/28 00:15:07;;;;;;;;;;;20.90;36.40;;;;;;671435;29;1207;-83
2022/01/28 00:20:51;;;;;;;;;;;20.90;36.60;;;;;;675428;29;1032;-86
2022/01/28 00:38:04;;;;;;;;;;;20.80;37.10;;;;;;683287;28;685;-84
2022/01/28 00:38:29;;;;;;;;;;;20.80;37.10;;;;;;683320;28;870;-86
2022/01/28 00:38:49;;;;;;;;;;;20.80;37.10;;;;;;683389;28;811;-85
2022/01/28 00:39:10;;;;;;;;;;;20.80;37.20;;;;;;683389;28;919;-86
2022/01/28 00:39:31;;;;;;;;;;;20.80;37.10;;;;;;683453;28;796;-80
2022/01/28 00:39:52;;;;;;;;;;;20.80;37.10;;;;;;683380;28;890;-87
2022/01/28 00:40:12;;;;;;;;;;;20.80;37.20;;;;;;685618;28;1106;-85
2022/01/28 00:40:33;;;;;;;;;;;20.80;37.10;;;;;;685849;28;914;-87
2022/01/28 00:40:54;;;;;;;;;;;20.80;37.20;;;;;;685834;28;926;-83
2022/01/28 00:41:15;;;;;;;;;;;20.80;37.20;;;;;;685847;28;776;-87
2022/01/28 00:41:35;;;;;;;;;;;20.80;37.20;;;;;;685819;28;1331;-84
2022/01/28 00:41:56;;;;;;;;;;;20.80;37.30;;;;;;685646;28;843;-86
2022/01/28 00:42:17;;;;;;;;;;;20.80;37.20;;;;;;683290;28;768;-86
2022/01/28 00:42:37;;;;;;;;;;;20.80;37.20;;;;;;685806;28;1318;-87
2022/01/28 00:42:58;;;;;;;;;;;20.80;37.30;;;;;;685878;28;898;-87
2022/01/28 00:43:19;;;;;;;;;;;20.80;38.40;;;;;;685748;28;803;-78
2022/01/28 00:43:39;;;;;;;;;;;20.80;37.20;;;;;;685817;28;795;-79
2022/01/28 00:44:03;;;;;;;;;;;20.80;37.30;;;;;;685834;28;965;-78
2022/01/28 00:44:24;;;;;;;;;;;20.80;37.20;;;;;;683022;28;1413;-86
2022/01/28 00:44:44;;;;;;;;;;;20.80;37.30;;;;;;683252;29;788;-80
2022/01/28 00:45:05;;;;;;;;;;;20.80;37.30;;;;;;683248;29;820;-86
2022/01/28 00:45:26;;;;;;;;;;;20.80;37.20;;;;;;683253;29;823;-88
2022/01/28 00:45:46;;;;;;;;;;;20.80;37.30;;;;;;683093;29;1961;-86
2022/01/28 00:46:07;;;;;;;;;;;20.80;37.30;;;;;;682971;28;838;-85
2022/01/28 00:46:27;;;;;;;;;;;20.80;37.30;;;;;;683301;28;863;-86
2022/01/28 00:46:48;;;;;;;;;;;20.80;37.40;;;;;;683418;28;906;-79
2022/01/28 00:47:09;;;;;;;;;;;20.80;37.50;;;;;;683651;29;863;-87
2022/01/28 00:47:29;;;;;;;;;;;20.80;37.50;;;;;;683532;28;966;-84
2022/01/28 00:47:50;;;;;;;;;;;20.80;37.60;;;;;;683167;28;1356;-79
2022/01/28 00:48:11;;;;;;;;;;;20.80;38.00;;;;;;683223;29;780;-85
2022/01/28 00:48:31;;;;;;;;;;;20.80;38.20;;;;;;683179;29;859;-85
2022/01/28 00:48:52;;;;;;;;;;;20.80;38.20;;;;;;683176;29;760;-87
2022/01/28 00:49:12;;;;;;;;;;;20.90;38.10;;;;;;683093;28;1339;-86
2022/01/28 00:49:33;;;;;;;;;;;20.90;38.20;;;;;;683348;28;796;-85
2022/01/28 00:49:53;;;;;;;;;;;20.90;38.30;;;;;;683356;28;883;-84
2022/01/28 00:50:15;;;;;;;;;;;20.90;38.30;;;;;;683316;28;934;-84
2022/01/28 00:50:36;;;;;;;;;;;20.90;38.30;;;;;;683426;28;799;-87
2022/01/28 00:50:56;;;;;;;;;;;20.90;38.30;;;;;;683459;28;835;-85
2022/01/28 00:51:17;;;;;;;;;;;20.90;38.20;;;;;;683324;28;1334;-84
2022/01/28 00:51:38;;;;;;;;;;;20.90;38.20;;;;;;683442;28;787;-85
2022/01/28 00:51:58;;;;;;;;;;;20.90;38.20;;;;;;683278;29;1312;-84
2022/01/28 00:52:19;;;;;;;;;;;20.90;38.10;;;;;;683380;28;803;-80
2022/01/28 00:52:40;;;;;;;;;;;20.90;38.30;;;;;;683343;28;835;-82
2022/01/28 00:53:00;;;;;;;;;;;20.90;38.10;;;;;;683430;28;926;-84
2022/01/28 00:53:21;;;;;;;;;;;20.90;38.10;;;;;;683284;28;1321;-86
2022/01/28 00:53:41;;;;;;;;;;;20.90;38.10;;;;;;683362;28;519;-86
2022/01/28 00:54:02;;;;;;;;;;;20.90;38.10;;;;;;683396;28;930;-85
2022/01/28 00:54:23;;;;;;;;;;;21.00;38.20;;;;;;683401;28;875;-87
2022/01/28 00:54:43;;;;;;;;;;;20.90;38.10;;;;;;683411;28;846;-85
2022/01/28 00:55:04;;;;;;;;;;;21.00;38.10;;;;;;683477;28;847;-87
2022/01/28 00:55:25;;;;;;;;;;;20.90;38.10;;;;;;683384;28;876;-86
2022/01/28 00:55:45;;;;;;;;;;;21.00;38.10;;;;;;683447;28;1326;-88
2022/01/28 00:56:06;;;;;;;;;;;21.00;38.10;;;;;;683561;28;827;-89
2022/01/28 00:56:27;;;;;;;;;;;21.00;38.20;;;;;;683363;28;725;-88
2022/01/28 00:56:47;;;;;;;;;;;21.00;38.20;;;;;;683517;28;895;-85
2022/01/28 00:57:08;;;;;;;;;;;21.00;38.10;;;;;;683661;28;895;-83
2022/01/28 00:57:28;;;;;;;;;;;21.00;38.00;;;;;;683275;28;990;-83
2022/01/28 00:57:49;;;;;;;;;;;21.30;38.30;;;;;;683595;28;812;-85
2022/01/28 00:58:10;;;;;;;;;;;21.00;38.10;;;;;;683613;28;1262;-82
2022/01/28 00:58:30;;;;;;;;;;;21.00;38.00;;;;;;683376;29;815;-86
2022/01/28 00:58:51;;;;;;;;;;;21.00;38.10;;;;;;683229;29;851;-88
2022/01/28 00:59:11;;;;;;;;;;;21.00;38.00;;;;;;683192;29;867;-87
2022/01/28 00:59:32;;;;;;;;;;;21.00;38.00;;;;;;683197;29;899;-85
2022/01/28 00:59:52;;;;;;;;;;;21.00;38.00;;;;;;684686;28;1613;-86
2022/01/28 01:00:13;;;;;;;;;;;20.90;38.00;;;;;;685954;28;917;-85
2022/01/28 01:00:34;;;;;;;;;;;21.00;39.10;;;;;;686170;28;847;-85
2022/01/28 01:00:54;;;;;;;;;;;21.00;38.00;;;;;;685994;28;795;-83
2022/01/28 01:01:15;;;;;;;;;;;21.00;38.00;;;;;;685956;28;894;-84
2022/01/28 01:01:35;;;;;;;;;;;21.00;38.00;;;;;;688459;28;914;-84
2022/01/28 01:01:56;;;;;;;;;;;21.00;38.00;;;;;;688366;28;879;-84
2022/01/28 01:02:16;;;;;;;;;;;21.00;38.00;;;;;;688324;28;799;-82
2022/01/28 01:02:37;;;;;;;;;;;21.00;39.10;;;;;;688727;28;776;-85
2022/01/28 01:02:58;;;;;;;;;;;21.00;38.00;;;;;;688476;28;795;-84
2022/01/28 01:03:18;;;;;;;;;;;21.00;37.90;;;;;;688633;28;885;-86
2022/01/28 01:03:39;;;;;;;;;;;21.00;39.00;;;;;;686337;28;783;-81
2022/01/28 01:04:00;;;;;;;;;;;21.10;38.00;;;;;;686463;28;871;-83
2022/01/28 01:04:23;;;;;;;;;;;21.10;38.00;;;;;;686323;28;795;-86
2022/01/28 01:04:43;;;;;;;;;;;21.10;38.00;;;;;;686289;28;862;-83
2022/01/28 01:05:04;;;;;;;;;;;21.10;38.00;;;;;;686173;28;903;-83
2022/01/28 01:05:25;;;;;;;;;;;21.10;38.00;;;;;;686142;28;854;-85
2022/01/28 01:05:46;;;;;;;;;;;21.10;38.10;;;;;;686034;28;1902;-85
2022/01/28 01:06:06;;;;;;;;;;;21.10;37.90;;;;;;686232;28;878;-86
2022/01/28 01:06:27;;;;;;;;;;;21.10;38.00;;;;;;686052;28;894;-86
2022/01/28 01:06:48;;;;;;;;;;;21.10;37.90;;;;;;686215;28;755;-83
2022/01/28 01:07:08;;;;;;;;;;;21.10;37.90;;;;;;687113;28;887;-80
2022/01/28 01:07:30;;;;;;;;;;;21.10;37.90;;;;;;688407;28;886;-82
2022/01/28 01:07:51;;;;;;;;;;;21.10;37.90;;;;;;686558;28;835;-85
2022/01/28 01:08:11;;;;;;;;;;;21.10;38.00;;;;;;687150;28;886;-85
2022/01/28 01:08:32;;;;;;;;;;;21.10;37.90;;;;;;687676;28;771;-79
2022/01/28 01:08:53;;;;;;;;;;;21.10;37.90;;;;;;686256;28;1045;-87
2022/01/28 01:09:14;;;;;;;;;;;21.10;37.90;;;;;;687368;28;846;-87
2022/01/28 01:09:35;;;;;;;;;;;21.10;37.90;;;;;;687496;28;862;-87
2022/01/28 01:09:55;;;;;;;;;;;21.10;37.90;;;;;;688299;28;1357;-84
2022/01/28 01:10:16;;;;;;;;;;;21.10;37.90;;;;;;686472;28;851;-86
2022/01/28 01:10:39;;;;;;;;;;;21.10;37.90;;;;;;687753;28;989;-87
2022/01/28 01:11:00;;;;;;;;;;;21.10;37.90;;;;;;688217;28;1013;-87
2022/01/28 01:11:22;;;;;;;;;;;21.10;37.90;;;;;;687898;28;751;-84
2022/01/28 01:11:43;;;;;;;;;;;21.10;37.90;;;;;;686759;28;819;-84
2022/01/28 01:12:04;;;;;;;;;;;21.10;37.90;;;;;;688158;28;895;-86
2022/01/28 01:12:26;;;;;;;;;;;21.10;37.90;;;;;;687350;28;1339;-86
2022/01/28 01:12:47;;;;;;;;;;;21.10;38.00;;;;;;686549;28;930;-86
2022/01/28 01:13:08;;;;;;;;;;;21.10;38.00;;;;;;687169;28;843;-85
2022/01/28 01:13:29;;;;;;;;;;;21.10;38.00;;;;;;687904;28;914;-78
2022/01/28 01:13:50;;;;;;;;;;;21.10;37.90;;;;;;688114;28;1001;-84
2022/01/28 01:14:12;;;;;;;;;;;21.10;37.90;;;;;;687414;28;811;-87
2022/01/28 01:14:32;;;;;;;;;;;21.10;37.90;;;;;;687770;28;855;-85
2022/01/28 01:14:53;;;;;;;;;;;21.10;37.90;;;;;;688052;28;970;-87
2022/01/28 01:15:18;;;;;;;;;;;21.10;37.90;;;;;;686514;28;823;-84
2022/01/28 01:15:43;;;;;;;;;;;21.10;37.90;;;;;;686503;28;839;-83
2022/01/28 01:16:05;;;;;;;;;;;21.10;37.90;;;;;;687447;28;843;-85
2022/01/28 01:16:40;;;;;;;;;;;21.10;37.90;;;;;;686803;28;981;-87
2022/01/28 01:17:57;;;;;;;;;;;21.10;37.90;;;;;;686687;28;862;-86
2022/01/28 01:19:04;;;;;;;;;;;21.10;38.00;;;;;;686154;28;680;-84
2022/01/28 01:19:38;;;;;;;;;;;21.10;37.90;;;;;;686077;28;653;-84
2022/01/28 01:21:11;;;;;;;;;;;21.10;38.00;;;;;;682984;29;736;-85
2022/01/28 01:21:37;;;;;;;;;;;21.10;37.90;;;;;;686057;28;968;-85
2022/01/28 01:22:00;;;;;;;;;;;21.10;38.00;;;;;;686132;28;854;-85
2022/01/28 01:22:20;;;;;;;;;;;21.10;38.00;;;;;;686025;28;869;-85
2022/01/28 01:22:42;;;;;;;;;;;21.10;37.90;;;;;;686037;28;803;-86
2022/01/28 01:23:09;;;;;;;;;;;21.10;37.90;;;;;;686054;28;865;-86
2022/01/28 01:23:34;;;;;;;;;;;21.10;37.90;;;;;;686074;28;863;-83
2022/01/28 01:23:56;;;;;;;;;;;21.10;37.90;;;;;;685963;28;968;-85
2022/01/28 01:24:22;;;;;;;;;;;21.10;37.90;;;;;;685925;28;799;-84
2022/01/28 01:24:59;;;;;;;;;;;21.10;38.00;;;;;;685854;28;1309;-85
2022/01/28 01:25:26;;;;;;;;;;;21.10;37.90;;;;;;685937;28;1327;-86
2022/01/28 01:26:08;;;;;;;;;;;21.10;37.90;;;;;;685762;28;1966;-85
2022/01/28 01:26:34;;;;;;;;;;;21.10;37.90;;;;;;686100;28;816;-80
2022/01/28 01:26:59;;;;;;;;;;;21.10;37.90;;;;;;685956;28;823;-86
2022/01/28 01:27:20;;;;;;;;;;;21.10;37.90;;;;;;685743;28;1051;-86
2022/01/28 01:27:42;;;;;;;;;;;21.10;37.90;;;;;;686035;28;831;-84
2022/01/28 01:28:02;;;;;;;;;;;21.10;38.00;;;;;;688404;28;1518;-85
2022/01/28 01:28:31;;;;;;;;;;;21.10;37.90;;;;;;685541;28;1320;-86
2022/01/28 01:28:51;;;;;;;;;;;21.10;37.90;;;;;;685545;28;1322;-82
2022/01/28 01:29:13;;;;;;;;;;;21.10;37.90;;;;;;685580;28;1326;-86
2022/01/28 01:29:35;;;;;;;;;;;21.10;37.90;;;;;;685783;28;811;-84
2022/01/28 01:29:55;;;;;;;;;;;21.10;37.90;;;;;;685688;28;882;-85
2022/01/28 01:30:18;;;;;;;;;;;21.10;37.90;;;;;;685854;28;1130;-84
2022/01/28 01:30:41;;;;;;;;;;;21.10;37.90;;;;;;683376;28;1627;-84
2022/01/28 01:31:04;;;;;;;;;;;21.10;37.80;;;;;;683135;29;866;-84
2022/01/28 01:31:24;;;;;;;;;;;21.10;37.90;;;;;;683057;29;812;-84
2022/01/28 01:31:46;;;;;;;;;;;21.10;37.90;;;;;;683048;29;759;-77
2022/01/28 01:32:12;;;;;;;;;;;21.10;37.90;;;;;;684405;28;949;-86
2022/01/28 01:32:34;;;;;;;;;;;21.10;37.90;;;;;;685965;28;823;-83
2022/01/28 01:32:54;;;;;;;;;;;21.10;37.90;;;;;;685898;28;863;-81
2022/01/28 01:33:17;;;;;;;;;;;21.10;37.90;;;;;;685908;28;795;-83
2022/01/28 01:33:54;;;;;;;;;;;21.10;37.90;;;;;;685974;28;819;-85
2022/01/28 01:34:18;;;;;;;;;;;21.10;37.90;;;;;;685862;28;882;-84
2022/01/28 01:34:39;;;;;;;;;;;21.10;37.90;;;;;;688449;28;1324;-80
2022/01/28 01:34:59;;;;;;;;;;;21.10;37.90;;;;;;688522;28;792;-86
2022/01/28 01:35:20;;;;;;;;;;;21.10;37.90;;;;;;688332;28;902;-85
2022/01/28 01:35:41;;;;;;;;;;;21.10;37.90;;;;;;688364;28;899;-85
2022/01/28 01:36:02;;;;;;;;;;;21.10;37.90;;;;;;688534;28;838;-81
2022/01/28 01:36:23;;;;;;;;;;;21.10;37.90;;;;;;688022;28;954;-85
2022/01/28 01:36:44;;;;;;;;;;;21.10;37.90;;;;;;685909;28;815;-86
2022/01/28 01:37:04;;;;;;;;;;;21.10;38.00;;;;;;686053;28;804;-86
2022/01/28 01:37:25;;;;;;;;;;;21.10;38.00;;;;;;685897;28;839;-85
2022/01/28 01:37:46;;;;;;;;;;;21.10;39.00;;;;;;685910;28;962;-86
2022/01/28 01:38:09;;;;;;;;;;;21.10;38.00;;;;;;685911;28;1361;-86
2022/01/28 01:38:33;;;;;;;;;;;21.10;38.00;;;;;;685775;28;1033;-83
2022/01/28 01:38:54;;;;;;;;;;;21.10;38.00;;;;;;685878;28;855;-85
2022/01/28 01:39:20;;;;;;;;;;;21.10;38.10;;;;;;686003;28;799;-85
2022/01/28 01:39:42;;;;;;;;;;;21.10;37.80;;;;;;685866;28;930;-86
2022/01/28 01:40:03;;;;;;;;;;;21.10;37.80;;;;;;685960;28;883;-85
2022/01/28 01:40:29;;;;;;;;;;;21.00;37.70;;;;;;688204;28;1570;-86
2022/01/28 01:40:54;;;;;;;;;;;21.00;37.80;;;;;;688308;28;811;-83
2022/01/28 01:41:19;;;;;;;;;;;21.00;37.70;;;;;;685637;28;879;-79
2022/01/28 01:41:45;;;;;;;;;;;21.00;37.60;;;;;;685698;28;882;-84
2022/01/28 01:42:37;;;;;;;;;;;21.00;37.70;;;;;;685730;28;883;-82
2022/01/28 01:42:52;;;;;;;;;;;21.00;37.60;;;;;;685391;28;1106;-82
2022/01/28 01:43:29;;;;;;;;;;;21.00;37.70;;;;;;685874;28;839;-84
2022/01/28 01:43:59;;;;;;;;;;;20.90;37.70;;;;;;685910;28;854;-83
2022/01/28 01:46:08;;;;;;;;;;;20.90;37.80;;;;;;685951;28;1910;-85
2022/01/28 01:52:23;;;;;;;;;;;20.80;38.00;;;;;;688334;28;925;-84
2022/01/28 01:52:43;;;;;;;;;;;20.80;38.10;;;;;;688258;28;854;-83
2022/01/28 01:53:04;;;;;;;;;;;20.80;38.00;;;;;;688346;28;758;-84
2022/01/28 01:53:24;;;;;;;;;;;20.80;38.10;;;;;;688648;28;865;-83
2022/01/28 01:53:45;;;;;;;;;;;20.80;38.10;;;;;;688298;28;878;-84
2022/01/28 01:54:05;;;;;;;;;;;20.80;38.10;;;;;;685545;28;1483;-91
2022/01/28 01:54:26;;;;;;;;;;;20.80;38.10;;;;;;685573;28;1220;-86
2022/01/28 01:54:50;;;;;;;;;;;20.80;38.10;;;;;;685720;28;897;-84
2022/01/28 01:55:11;;;;;;;;;;;20.80;38.10;;;;;;685553;28;1260;-85
2022/01/28 01:55:31;;;;;;;;;;;20.80;38.20;;;;;;685703;28;887;-84
2022/01/28 01:55:52;;;;;;;;;;;20.80;38.20;;;;;;685107;28;1268;-83
2022/01/28 01:56:13;;;;;;;;;;;20.80;38.20;;;;;;682823;28;1301;-86
2022/01/28 01:56:34;;;;;;;;;;;20.80;38.20;;;;;;682942;29;1394;-87
2022/01/28 01:56:55;;;;;;;;;;;20.80;38.30;;;;;;682992;29;811;-86
2022/01/28 01:57:15;;;;;;;;;;;20.80;38.30;;;;;;682946;29;1051;-85
2022/01/28 01:57:37;;;;;;;;;;;20.80;38.20;;;;;;683082;28;894;-86
2022/01/28 01:57:58;;;;;;;;;;;20.80;38.30;;;;;;683467;28;1410;-86
2022/01/28 01:58:26;;;;;;;;;;;20.80;38.20;;;;;;686325;28;803;-86
2022/01/28 01:58:48;;;;;;;;;;;20.80;38.20;;;;;;686073;28;1195;-86
2022/01/28 01:59:09;;;;;;;;;;;20.80;38.30;;;;;;686255;28;818;-82
2022/01/28 01:59:30;;;;;;;;;;;21.00;38.70;;;;;;686146;28;859;-83
2022/01/28 01:59:50;;;;;;;;;;;20.80;38.90;;;;;;686089;28;1487;-85
2022/01/28 02:00:12;;;;;;;;;;;20.80;39.00;;;;;;686250;28;804;-85
2022/01/28 02:00:33;;;;;;;;;;;20.80;39.40;;;;;;686321;28;930;-86
2022/01/28 02:00:53;;;;;;;;;;;20.80;40.70;;;;;;686151;28;1346;-85
2022/01/28 02:01:14;;;;;;;;;;;20.80;41.30;;;;;;683901;28;1345;-86
2022/01/28 02:01:35;;;;;;;;;;;20.80;41.50;;;;;;686217;28;838;-85
2022/01/28 02:01:56;;;;;;;;;;;20.80;42.30;;;;;;686048;28;787;-85
2022/01/28 02:02:17;;;;;;;;;;;20.80;44.40;;;;;;686170;28;886;-86
2022/01/28 02:02:37;;;;;;;;;;;20.80;45.00;;;;;;686223;28;1010;-86
2022/01/28 02:02:58;;;;;;;;;;;20.80;46.30;;;;;;686459;28;827;-86
2022/01/28 02:03:18;;;;;;;;;;;20.90;49.70;;;;;;685966;28;1490;-89
2022/01/28 02:03:39;;;;;;;;;;;20.90;50.80;;;;;;686458;28;831;-86
2022/01/28 02:04:00;;;;;;;;;;;20.90;48.80;;;;;;686306;28;898;-85
2022/01/28 02:04:20;;;;;;;;;;;20.90;49.10;;;;;;686044;28;906;-85
2022/01/28 02:04:41;;;;;;;;;;;20.90;52.60;;;;;;686106;28;906;-86
2022/01/28 02:05:02;;;;;;;;;;;20.90;50.40;;;;;;686321;28;847;-85
2022/01/28 02:05:23;;;;;;;;;;;20.90;50.70;;;;;;688874;28;815;-84
2022/01/28 02:05:44;;;;;;;;;;;20.90;51.00;;;;;;688811;28;834;-85
2022/01/28 02:06:04;;;;;;;;;;;20.90;52.30;;;;;;688797;28;897;-86
2022/01/28 02:06:25;;;;;;;;;;;20.90;53.00;;;;;;688679;28;957;-84
2022/01/28 02:06:46;;;;;;;;;;;20.90;52.10;;;;;;688799;28;957;-88
2022/01/28 02:07:06;;;;;;;;;;;21.00;49.30;;;;;;688839;28;949;-88
2022/01/28 02:07:27;;;;;;;;;;;21.00;51.30;;;;;;688780;28;826;-87
2022/01/28 02:07:48;;;;;;;;;;;21.00;53.50;;;;;;688717;28;851;-86
2022/01/28 02:08:08;;;;;;;;;;;21.00;50.70;;;;;;688906;28;882;-86
2022/01/28 02:08:32;;;;;;;;;;;21.00;49.50;;;;;;688667;28;949;-81
2022/01/28 02:08:53;;;;;;;;;;;20.90;49.10;;;;;;688685;28;878;-86
2022/01/28 02:09:13;;;;;;;;;;;21.00;49.00;;;;;;688639;28;1361;-85
2022/01/28 02:09:34;;;;;;;;;;;21.00;49.30;;;;;;688872;28;947;-86
2022/01/28 02:09:55;;;;;;;;;;;21.00;48.80;;;;;;688817;28;815;-88
2022/01/28 02:10:15;;;;;;;;;;;21.00;47.80;;;;;;688712;28;857;-86
2022/01/28 02:10:36;;;;;;;;;;;21.00;48.70;;;;;;688866;28;913;-85
2022/01/28 02:10:58;;;;;;;;;;;21.00;48.00;;;;;;685914;28;1186;-87
2022/01/28 02:11:18;;;;;;;;;;;21.00;48.50;;;;;;686062;28;851;-89
2022/01/28 02:11:40;;;;;;;;;;;21.00;48.60;;;;;;686133;28;807;-88
2022/01/28 02:12:00;;;;;;;;;;;21.00;49.80;;;;;;686143;28;1405;-85
2022/01/28 02:12:21;;;;;;;;;;;21.00;48.20;;;;;;686056;28;883;-87
2022/01/28 02:12:49;;;;;;;;;;;21.00;49.40;;;;;;686705;28;850;-85
2022/01/28 02:13:09;;;;;;;;;;;21.00;46.80;;;;;;688864;28;889;-84
2022/01/28 02:13:30;;;;;;;;;;;21.00;48.60;;;;;;688768;28;795;-86
2022/01/28 02:13:52;;;;;;;;;;;21.00;49.60;;;;;;688654;28;896;-84
2022/01/28 02:14:13;;;;;;;;;;;21.00;48.10;;;;;;688680;28;851;-83
2022/01/28 02:14:33;;;;;;;;;;;21.00;47.30;;;;;;688925;28;861;-85
2022/01/28 02:14:54;;;;;;;;;;;21.00;47.60;;;;;;688865;28;815;-84
2022/01/28 02:15:15;;;;;;;;;;;21.00;48.20;;;;;;688744;28;795;-86
2022/01/28 02:15:35;;;;;;;;;;;21.00;48.00;;;;;;689034;28;803;-88
2022/01/28 02:15:57;;;;;;;;;;;21.00;47.10;;;;;;688948;28;910;-89
2022/01/28 02:16:18;;;;;;;;;;;21.00;47.70;;;;;;688920;28;949;-89
2022/01/28 02:16:38;;;;;;;;;;;21.00;46.80;;;;;;689098;28;831;-85
2022/01/28 02:16:59;;;;;;;;;;;21.00;47.30;;;;;;688893;28;866;-84
2022/01/28 02:17:20;;;;;;;;;;;21.00;46.40;;;;;;688995;28;865;-87
2022/01/28 02:17:41;;;;;;;;;;;21.00;46.20;;;;;;688839;28;1362;-87
2022/01/28 02:18:01;;;;;;;;;;;21.00;47.20;;;;;;689016;28;1313;-89
2022/01/28 02:18:22;;;;;;;;;;;21.00;46.40;;;;;;689160;28;870;-87
2022/01/28 02:18:43;;;;;;;;;;;21.00;47.00;;;;;;684346;28;899;-88
2022/01/28 02:19:03;;;;;;;;;;;21.00;45.60;;;;;;683762;29;1267;-87
2022/01/28 02:19:24;;;;;;;;;;;21.00;46.80;;;;;;683761;29;815;-87
2022/01/28 02:19:44;;;;;;;;;;;21.00;46.50;;;;;;683788;29;795;-85
2022/01/28 02:20:08;;;;;;;;;;;21.00;45.70;;;;;;683747;29;796;-85
2022/01/28 02:20:34;;;;;;;;;;;21.00;45.20;;;;;;683656;29;878;-85
2022/01/28 02:21:02;;;;;;;;;;;21.00;46.30;;;;;;683792;29;843;-88
2022/01/28 02:21:22;;;;;;;;;;;21.00;47.00;;;;;;686231;28;1121;-86
2022/01/28 02:21:47;;;;;;;;;;;21.00;45.30;;;;;;686277;28;827;-87
2022/01/28 02:22:09;;;;;;;;;;;21.00;46.20;;;;;;688863;28;1236;-84
2022/01/28 02:22:29;;;;;;;;;;;21.00;46.20;;;;;;689018;28;882;-86
2022/01/28 02:22:50;;;;;;;;;;;21.00;45.20;;;;;;688989;28;905;-89
2022/01/28 02:23:11;;;;;;;;;;;21.00;46.50;;;;;;686183;28;1664;-85
2022/01/28 02:23:32;;;;;;;;;;;21.00;46.90;;;;;;686470;28;835;-89
2022/01/28 02:23:58;;;;;;;;;;;21.00;45.10;;;;;;683108;29;1194;-91
2022/01/28 02:24:32;;;;;;;;;;;21.00;45.60;;;;;;680864;29;887;-82
2022/01/28 02:24:53;;;;;;;;;;;21.00;52.20;;;;;;681007;29;871;-84
2022/01/28 02:25:27;;;;;;;;;;;21.00;64.40;;;;;;683498;29;812;-84
2022/01/28 02:25:48;;;;;;;;;;;21.10;66.40;;;;;;683450;29;1899;-84
2022/01/28 02:26:14;;;;;;;;;;;21.10;67.80;;;;;;683381;28;1414;-85
2022/01/28 02:26:36;;;;;;;;;;;21.10;68.20;;;;;;688808;28;1337;-83
2022/01/28 02:26:57;;;;;;;;;;;21.10;67.90;;;;;;688780;28;913;-84
2022/01/28 02:27:18;;;;;;;;;;;21.10;68.50;;;;;;688654;28;1013;-84
2022/01/28 02:27:38;;;;;;;;;;;21.10;68.10;;;;;;686505;28;1464;-84
2022/01/28 02:28:01;;;;;;;;;;;21.10;67.60;;;;;;686121;28;779;-84
2022/01/28 02:28:23;;;;;;;;;;;21.10;67.60;;;;;;685357;28;886;-85
2022/01/28 02:28:48;;;;;;;;;;;21.10;66.80;;;;;;683441;28;847;-85
2022/01/28 02:29:13;;;;;;;;;;;21.10;66.10;;;;;;683575;29;902;-85
2022/01/28 02:29:35;;;;;;;;;;;21.10;65.60;;;;;;683703;28;816;-84
2022/01/28 02:29:57;;;;;;;;;;;21.10;65.10;;;;;;683689;28;830;-84
2022/01/28 02:30:17;;;;;;;;;;;21.10;64.60;;;;;;683562;28;823;-85
2022/01/28 02:30:38;;;;;;;;;;;21.10;64.10;;;;;;683720;28;1430;-83
2022/01/28 02:31:00;;;;;;;;;;;21.10;63.60;;;;;;683587;28;823;-85
2022/01/28 02:31:24;;;;;;;;;;;21.10;63.20;;;;;;683691;28;800;-84
2022/01/28 02:31:44;;;;;;;;;;;21.10;62.80;;;;;;683535;28;811;-84
2022/01/28 02:32:07;;;;;;;;;;;21.10;62.30;;;;;;683807;28;823;-85
2022/01/28 02:32:27;;;;;;;;;;;21.10;63.00;;;;;;683453;28;1358;-85
2022/01/28 02:32:50;;;;;;;;;;;21.00;61.50;;;;;;684393;28;1318;-85
2022/01/28 02:33:13;;;;;;;;;;;21.10;61.10;;;;;;686375;28;862;-86
2022/01/28 02:33:34;;;;;;;;;;;21.10;60.30;;;;;;686413;28;862;-85
2022/01/28 02:33:57;;;;;;;;;;;21.10;60.00;;;;;;685946;28;1273;-86
2022/01/28 02:34:17;;;;;;;;;;;21.00;59.80;;;;;;686011;28;1351;-85
2022/01/28 02:34:40;;;;;;;;;;;21.00;59.60;;;;;;686274;28;792;-86
2022/01/28 02:35:00;;;;;;;;;;;21.00;58.90;;;;;;686064;28;1221;-86
2022/01/28 02:35:21;;;;;;;;;;;21.00;58.30;;;;;;686088;28;808;-88
2022/01/28 02:35:42;;;;;;;;;;;21.00;58.60;;;;;;686161;28;783;-86
2022/01/28 02:36:05;;;;;;;;;;;21.00;58.20;;;;;;686175;28;886;-88
2022/01/28 02:36:26;;;;;;;;;;;21.00;58.40;;;;;;686076;28;1386;-87
2022/01/28 02:36:47;;;;;;;;;;;21.10;58.40;;;;;;686087;28;839;-87
2022/01/28 02:37:08;;;;;;;;;;;21.00;58.20;;;;;;686420;28;779;-86
2022/01/28 02:37:28;;;;;;;;;;;21.00;58.00;;;;;;686265;28;1386;-86
2022/01/28 02:37:49;;;;;;;;;;;21.00;57.80;;;;;;686009;28;811;-82
2022/01/28 02:38:10;;;;;;;;;;;21.00;57.70;;;;;;686210;28;851;-82
2022/01/28 02:38:31;;;;;;;;;;;21.00;57.70;;;;;;686162;28;842;-88
2022/01/28 02:38:52;;;;;;;;;;;21.10;57.70;;;;;;686126;28;862;-87
2022/01/28 02:39:13;;;;;;;;;;;21.10;57.20;;;;;;686188;28;859;-86
2022/01/28 02:39:34;;;;;;;;;;;21.10;56.90;;;;;;686422;28;783;-84
2022/01/28 02:39:54;;;;;;;;;;;21.10;57.00;;;;;;686318;28;839;-88
2022/01/28 02:40:15;;;;;;;;;;;21.10;57.20;;;;;;686266;28;823;-84
2022/01/28 02:40:36;;;;;;;;;;;21.10;56.50;;;;;;686368;28;854;-86
2022/01/28 02:40:59;;;;;;;;;;;21.10;56.40;;;;;;686191;28;1303;-86
2022/01/28 02:41:21;;;;;;;;;;;21.10;56.30;;;;;;686319;28;854;-86
2022/01/28 02:41:46;;;;;;;;;;;21.10;56.40;;;;;;686384;28;950;-82
2022/01/28 02:42:19;;;;;;;;;;;21.10;56.10;;;;;;686469;28;866;-88
2022/01/28 02:42:55;;;;;;;;;;;21.10;56.00;;;;;;686401;28;894;-84
2022/01/28 02:43:44;;;;;;;;;;;21.10;55.40;;;;;;686443;28;877;-88
2022/01/28 02:44:49;;;;;;;;;;;21.10;55.30;;;;;;686437;28;606;-87
2022/01/28 02:45:13;;;;;;;;;;;21.10;55.20;;;;;;686387;28;858;-84
2022/01/28 02:45:37;;;;;;;;;;;21.10;54.70;;;;;;686413;28;831;-85
2022/01/28 02:46:05;;;;;;;;;;;21.10;54.60;;;;;;686181;28;1969;-86
2022/01/28 02:46:29;;;;;;;;;;;21.10;54.60;;;;;;685988;28;1097;-87
2022/01/28 02:47:02;;;;;;;;;;;21.10;54.70;;;;;;685988;28;1310;-83
2022/01/28 02:47:32;;;;;;;;;;;21.10;54.60;;;;;;686085;28;915;-85
2022/01/28 02:47:59;;;;;;;;;;;21.10;54.00;;;;;;686107;28;870;-87
2022/01/28 02:48:30;;;;;;;;;;;21.10;53.80;;;;;;686121;28;862;-85
2022/01/28 02:48:55;;;;;;;;;;;21.10;53.70;;;;;;686342;28;902;-86
2022/01/28 02:49:15;;;;;;;;;;;21.10;53.70;;;;;;686299;28;846;-87
2022/01/28 02:49:37;;;;;;;;;;;21.10;53.40;;;;;;686424;28;854;-87
2022/01/28 02:49:58;;;;;;;;;;;21.10;53.60;;;;;;688944;28;1370;-88
2022/01/28 02:50:18;;;;;;;;;;;21.10;53.30;;;;;;688804;28;810;-86
2022/01/28 02:50:52;;;;;;;;;;;21.10;53.60;;;;;;688911;28;767;-83
2022/01/28 02:51:19;;;;;;;;;;;21.10;53.00;;;;;;688707;28;942;-88